sensor_id;sensor_type;location;lat;lon;timestamp;temperature;humidity
15131;DHT22;7666;50.920;4.628;2023-08-08T00:01:35;14.30;99.90
15131;DHT22;7666;50.920;4.628;2023-08-08T00:04:21;14.30;99.90
15131;DHT22;7666;50.920;4.628;2023-08-08T00:07:07;14.30;99.90
15131;DHT22;7666;50.920;4.628;2023-08-08T00:09:53;14.30;99.90
15131;DHT22;7666;50.920;4.628;2023-08-08T00:12:39;14.20;99.90
15131;DHT22;7666;50.920;4.628;2023-08-08T00:15:25;14.20;99.90
15131;DHT22;7666;50.920;4.628;2023-08-08T00:18:11;14.20;99.90
15131;DHT22;7666;50.920;4.628;2023-08-08T00:20:57;14.20;99.90
15131;DHT22;7666;50.920;4.628;2023-08-08T00:23:42;14.20;99.90
15131;DHT22;7666;50.920;4.628;2023-08-08T00:26:28;14.20;99.90
15131;DHT22;7666;50.920;4.628;2023-08-08T00:29:14;14.20;99.90
15131;DHT22;7666;50.920;4.628;2023-08-08T00:32:00;14.20;99.90
15131;DHT22;7666;50.920;4.628;2023-08-08T00:34:46;14.20;99.90
15131;DHT22;7666;50.920;4.628;2023-08-08T00:37:32;14.10;99.90
15131;DHT22;7666;50.920;4.628;2023-08-08T00:40:18;14.10;99.90
15131;DHT22;7666;50.920;4.628;2023-08-08T00:43:04;14.10;99.90
15131;DHT22;7666;50.920;4.628;2023-08-08T00:45:50;14.10;99.90
15131;DHT22;7666;50.920;4.628;2023-08-08T00:48:36;14.10;99.90
15131;DHT22;7666;50.920;4.628;2023-08-08T00:51:23;14.10;99.90
15131;DHT22;7666;50.920;4.628;2023-08-08T00:54:10;14.10;99.90
15131;DHT22;7666;50.920;4.628;2023-08-08T00:56:56;14.10;99.90
15131;DHT22;7666;50.920;4.628;2023-08-08T00:59:42;14.10;99.90
15131;DHT22;7666;50.920;4.628;2023-08-08T01:02:28;14.10;99.90
15131;DHT22;7666;50.920;4.628;2023-08-08T01:05:14;14.10;99.90
15131;DHT22;7666;50.920;4.628;2023-08-08T01:08:07;14.10;99.90
15131;DHT22;7666;50.920;4.628;2023-08-08T01:10:53;14.10;99.90
15131;DHT22;7666;50.920;4.628;2023-08-08T01:13:40;14.10;99.90
15131;DHT22;7666;50.920;4.628;2023-08-08T01:16:27;14.10;99.90
15131;DHT22;7666;50.920;4.628;2023-08-08T01:19:20;14.10;99.90
15131;DHT22;7666;50.920;4.628;2023-08-08T01:22:25;14.10;99.90
15131;DHT22;7666;50.920;4.628;2023-08-08T01:25:14;14.10;99.90
15131;DHT22;7666;50.920;4.628;2023-08-08T01:28:01;14.10;99.90
15131;DHT22;7666;50.920;4.628;2023-08-08T01:30:47;14.00;99.90
15131;DHT22;7666;50.920;4.628;2023-08-08T01:33:33;14.10;99.90
15131;DHT22;7666;50.920;4.628;2023-08-08T01:36:25;14.00;99.90
15131;DHT22;7666;50.920;4.628;2023-08-08T01:39:16;14.00;99.90
15131;DHT22;7666;50.920;4.628;2023-08-08T01:42:03;14.00;99.90
15131;DHT22;7666;50.920;4.628;2023-08-08T01:44:51;14.00;99.90
15131;DHT22;7666;50.920;4.628;2023-08-08T01:47:38;14.00;99.90
15131;DHT22;7666;50.920;4.628;2023-08-08T01:50:24;14.00;99.90
15131;DHT22;7666;50.920;4.628;2023-08-08T01:53:11;14.00;99.90
15131;DHT22;7666;50.920;4.628;2023-08-08T01:55:57;14.00;99.90
15131;DHT22;7666;50.920;4.628;2023-08-08T01:58:43;14.00;99.90
15131;DHT22;7666;50.920;4.628;2023-08-08T02:01:29;14.00;99.90
15131;DHT22;7666;50.920;4.628;2023-08-08T02:04:15;14.00;99.90
15131;DHT22;7666;50.920;4.628;2023-08-08T02:07:01;14.00;99.90
15131;DHT22;7666;50.920;4.628;2023-08-08T02:09:47;14.00;99.90
15131;DHT22;7666;50.920;4.628;2023-08-08T02:12:33;14.00;99.90
15131;DHT22;7666;50.920;4.628;2023-08-08T02:15:19;13.90;99.90
15131;DHT22;7666;50.920;4.628;2023-08-08T02:18:05;13.90;99.90
15131;DHT22;7666;50.920;4.628;2023-08-08T02:20:51;13.90;99.90
15131;DHT22;7666;50.920;4.628;2023-08-08T02:23:37;13.90;99.90
15131;DHT22;7666;50.920;4.628;2023-08-08T02:26:25;13.90;99.90
15131;DHT22;7666;50.920;4.628;2023-08-08T02:29:11;13.90;99.90
15131;DHT22;7666;50.920;4.628;2023-08-08T02:31:57;13.90;99.90
15131;DHT22;7666;50.920;4.628;2023-08-08T02:34:43;13.90;99.90
15131;DHT22;7666;50.920;4.628;2023-08-08T02:37:29;13.90;99.90
15131;DHT22;7666;50.920;4.628;2023-08-08T02:40:15;13.90;99.90
15131;DHT22;7666;50.920;4.628;2023-08-08T02:43:01;13.90;99.90
15131;DHT22;7666;50.920;4.628;2023-08-08T02:45:47;14.00;99.90
15131;DHT22;7666;50.920;4.628;2023-08-08T02:48:33;13.90;99.90
15131;DHT22;7666;50.920;4.628;2023-08-08T02:51:19;13.90;99.90
15131;DHT22;7666;50.920;4.628;2023-08-08T02:54:05;13.90;99.90
15131;DHT22;7666;50.920;4.628;2023-08-08T02:56:51;13.80;99.90
15131;DHT22;7666;50.920;4.628;2023-08-08T02:59:37;13.80;99.90
15131;DHT22;7666;50.920;4.628;2023-08-08T03:02:23;13.80;99.90
15131;DHT22;7666;50.920;4.628;2023-08-08T03:05:10;13.80;99.90
15131;DHT22;7666;50.920;4.628;2023-08-08T03:07:56;13.80;99.90
15131;DHT22;7666;50.920;4.628;2023-08-08T03:10:42;13.80;99.90
15131;DHT22;7666;50.920;4.628;2023-08-08T03:13:28;13.70;99.90
15131;DHT22;7666;50.920;4.628;2023-08-08T03:16:14;13.70;99.90
15131;DHT22;7666;50.920;4.628;2023-08-08T03:19:00;13.70;99.90
15131;DHT22;7666;50.920;4.628;2023-08-08T03:21:46;13.70;99.90
15131;DHT22;7666;50.920;4.628;2023-08-08T03:24:32;13.70;99.90
15131;DHT22;7666;50.920;4.628;2023-08-08T03:27:18;13.70;99.90
15131;DHT22;7666;50.920;4.628;2023-08-08T03:30:04;13.70;99.90
15131;DHT22;7666;50.920;4.628;2023-08-08T03:32:50;13.70;99.90
15131;DHT22;7666;50.920;4.628;2023-08-08T03:35:36;13.60;99.90
15131;DHT22;7666;50.920;4.628;2023-08-08T03:38:22;13.60;99.90
15131;DHT22;7666;50.920;4.628;2023-08-08T03:41:08;13.60;99.90
15131;DHT22;7666;50.920;4.628;2023-08-08T03:43:54;13.50;99.90
15131;DHT22;7666;50.920;4.628;2023-08-08T03:46:41;13.50;99.90
15131;DHT22;7666;50.920;4.628;2023-08-08T03:49:27;13.50;99.90
15131;DHT22;7666;50.920;4.628;2023-08-08T03:52:13;13.40;99.90
15131;DHT22;7666;50.920;4.628;2023-08-08T03:54:59;13.40;99.90
15131;DHT22;7666;50.920;4.628;2023-08-08T03:57:45;13.40;99.90
15131;DHT22;7666;50.920;4.628;2023-08-08T04:00:32;13.40;99.90
15131;DHT22;7666;50.920;4.628;2023-08-08T04:03:18;13.30;99.90
15131;DHT22;7666;50.920;4.628;2023-08-08T04:06:04;13.40;99.90
15131;DHT22;7666;50.920;4.628;2023-08-08T04:08:50;13.30;99.90
15131;DHT22;7666;50.920;4.628;2023-08-08T04:11:36;13.30;99.90
15131;DHT22;7666;50.920;4.628;2023-08-08T04:14:22;13.30;99.90
15131;DHT22;7666;50.920;4.628;2023-08-08T04:17:08;13.30;99.90
15131;DHT22;7666;50.920;4.628;2023-08-08T04:19:54;13.30;99.90
15131;DHT22;7666;50.920;4.628;2023-08-08T04:22:40;13.30;99.90
15131;DHT22;7666;50.920;4.628;2023-08-08T04:25:27;13.40;99.90
15131;DHT22;7666;50.920;4.628;2023-08-08T04:28:13;13.40;99.90
15131;DHT22;7666;50.920;4.628;2023-08-08T04:30:59;13.40;99.90
15131;DHT22;7666;50.920;4.628;2023-08-08T04:33:45;13.40;99.90
15131;DHT22;7666;50.920;4.628;2023-08-08T04:36:31;13.50;99.90
15131;DHT22;7666;50.920;4.628;2023-08-08T04:39:17;13.50;99.90
15131;DHT22;7666;50.920;4.628;2023-08-08T04:42:03;13.50;99.90
15131;DHT22;7666;50.920;4.628;2023-08-08T04:44:49;13.60;99.90
15131;DHT22;7666;50.920;4.628;2023-08-08T04:47:35;13.60;99.90
15131;DHT22;7666;50.920;4.628;2023-08-08T04:50:21;13.60;99.90
15131;DHT22;7666;50.920;4.628;2023-08-08T04:53:07;13.70;99.90
15131;DHT22;7666;50.920;4.628;2023-08-08T04:55:53;13.70;99.90
15131;DHT22;7666;50.920;4.628;2023-08-08T04:58:39;13.70;99.90
15131;DHT22;7666;50.920;4.628;2023-08-08T05:01:25;13.80;99.90
15131;DHT22;7666;50.920;4.628;2023-08-08T05:04:11;13.90;99.90
15131;DHT22;7666;50.920;4.628;2023-08-08T05:06:57;14.30;99.90
15131;DHT22;7666;50.920;4.628;2023-08-08T05:09:43;14.70;99.90
15131;DHT22;7666;50.920;4.628;2023-08-08T05:12:29;15.10;99.90
15131;DHT22;7666;50.920;4.628;2023-08-08T05:15:15;15.60;99.90
15131;DHT22;7666;50.920;4.628;2023-08-08T05:18:01;16.10;99.90
15131;DHT22;7666;50.920;4.628;2023-08-08T05:20:47;16.80;99.90
15131;DHT22;7666;50.920;4.628;2023-08-08T05:23:33;17.20;99.90
15131;DHT22;7666;50.920;4.628;2023-08-08T05:26:19;17.40;99.90
15131;DHT22;7666;50.920;4.628;2023-08-08T05:29:05;17.60;99.90
15131;DHT22;7666;50.920;4.628;2023-08-08T05:31:51;18.00;99.90
15131;DHT22;7666;50.920;4.628;2023-08-08T05:34:37;18.30;99.90
15131;DHT22;7666;50.920;4.628;2023-08-08T05:37:24;18.40;99.90
15131;DHT22;7666;50.920;4.628;2023-08-08T05:40:10;18.40;99.90
15131;DHT22;7666;50.920;4.628;2023-08-08T05:42:56;18.30;99.90
15131;DHT22;7666;50.920;4.628;2023-08-08T05:45:42;18.60;99.90
15131;DHT22;7666;50.920;4.628;2023-08-08T05:48:28;19.00;99.90
15131;DHT22;7666;50.920;4.628;2023-08-08T05:51:14;19.40;99.90
15131;DHT22;7666;50.920;4.628;2023-08-08T05:54:00;19.90;99.90
15131;DHT22;7666;50.920;4.628;2023-08-08T05:56:46;20.30;99.90
15131;DHT22;7666;50.920;4.628;2023-08-08T05:59:32;20.50;99.90
15131;DHT22;7666;50.920;4.628;2023-08-08T06:02:18;20.90;99.90
15131;DHT22;7666;50.920;4.628;2023-08-08T06:05:05;21.10;99.90
15131;DHT22;7666;50.920;4.628;2023-08-08T06:07:51;20.10;99.90
15131;DHT22;7666;50.920;4.628;2023-08-08T06:10:37;19.20;99.90
15131;DHT22;7666;50.920;4.628;2023-08-08T06:13:23;18.40;99.90
15131;DHT22;7666;50.920;4.628;2023-08-08T06:16:09;17.60;99.90
15131;DHT22;7666;50.920;4.628;2023-08-08T06:18:55;17.30;99.90
15131;DHT22;7666;50.920;4.628;2023-08-08T06:21:41;17.10;99.90
15131;DHT22;7666;50.920;4.628;2023-08-08T06:24:27;16.90;99.90
15131;DHT22;7666;50.920;4.628;2023-08-08T06:27:13;17.10;99.90
15131;DHT22;7666;50.920;4.628;2023-08-08T06:29:59;18.30;99.90
15131;DHT22;7666;50.920;4.628;2023-08-08T06:32:45;19.40;99.90
15131;DHT22;7666;50.920;4.628;2023-08-08T06:35:31;20.40;99.90
15131;DHT22;7666;50.920;4.628;2023-08-08T06:38:17;21.20;99.90
15131;DHT22;7666;50.920;4.628;2023-08-08T06:41:03;21.80;99.90
15131;DHT22;7666;50.920;4.628;2023-08-08T06:43:49;22.00;99.90
15131;DHT22;7666;50.920;4.628;2023-08-08T06:46:35;22.20;99.90
15131;DHT22;7666;50.920;4.628;2023-08-08T06:49:21;22.40;99.90
15131;DHT22;7666;50.920;4.628;2023-08-08T06:52:07;22.20;99.90
15131;DHT22;7666;50.920;4.628;2023-08-08T06:54:53;22.20;99.90
15131;DHT22;7666;50.920;4.628;2023-08-08T06:57:40;22.60;99.90
15131;DHT22;7666;50.920;4.628;2023-08-08T07:00:26;22.80;99.90
15131;DHT22;7666;50.920;4.628;2023-08-08T07:03:13;22.00;99.90
15131;DHT22;7666;50.920;4.628;2023-08-08T07:05:59;21.10;99.90
15131;DHT22;7666;50.920;4.628;2023-08-08T07:08:46;20.50;99.90
15131;DHT22;7666;50.920;4.628;2023-08-08T07:11:32;20.50;99.90
15131;DHT22;7666;50.920;4.628;2023-08-08T07:14:18;20.30;99.90
15131;DHT22;7666;50.920;4.628;2023-08-08T07:17:04;20.30;99.90
15131;DHT22;7666;50.920;4.628;2023-08-08T07:19:50;20.00;99.90
15131;DHT22;7666;50.920;4.628;2023-08-08T07:22:36;19.80;99.90
15131;DHT22;7666;50.920;4.628;2023-08-08T07:25:23;19.50;99.90
15131;DHT22;7666;50.920;4.628;2023-08-08T07:28:09;19.40;99.90
15131;DHT22;7666;50.920;4.628;2023-08-08T07:30:55;19.30;99.90
15131;DHT22;7666;50.920;4.628;2023-08-08T07:33:41;19.20;99.90
15131;DHT22;7666;50.920;4.628;2023-08-08T07:36:27;19.20;99.90
15131;DHT22;7666;50.920;4.628;2023-08-08T07:39:13;19.20;99.90
15131;DHT22;7666;50.920;4.628;2023-08-08T07:41:59;19.10;99.90
15131;DHT22;7666;50.920;4.628;2023-08-08T07:44:45;19.20;99.90
15131;DHT22;7666;50.920;4.628;2023-08-08T07:47:31;19.20;99.90
15131;DHT22;7666;50.920;4.628;2023-08-08T07:50:17;19.00;99.90
15131;DHT22;7666;50.920;4.628;2023-08-08T07:53:04;18.80;99.90
15131;DHT22;7666;50.920;4.628;2023-08-08T07:55:50;18.70;99.90
15131;DHT22;7666;50.920;4.628;2023-08-08T07:58:36;18.80;99.90
15131;DHT22;7666;50.920;4.628;2023-08-08T08:01:22;18.90;99.90
15131;DHT22;7666;50.920;4.628;2023-08-08T08:04:08;18.90;99.90
15131;DHT22;7666;50.920;4.628;2023-08-08T08:06:54;19.00;99.90
15131;DHT22;7666;50.920;4.628;2023-08-08T08:09:40;19.00;99.90
15131;DHT22;7666;50.920;4.628;2023-08-08T08:12:29;18.90;99.90
15131;DHT22;7666;50.920;4.628;2023-08-08T08:15:15;18.90;99.90
15131;DHT22;7666;50.920;4.628;2023-08-08T08:18:01;19.00;99.90
15131;DHT22;7666;50.920;4.628;2023-08-08T08:20:48;18.90;99.90
15131;DHT22;7666;50.920;4.628;2023-08-08T08:23:34;18.80;99.90
15131;DHT22;7666;50.920;4.628;2023-08-08T08:26:20;19.00;99.90
15131;DHT22;7666;50.920;4.628;2023-08-08T08:29:06;19.00;99.90
15131;DHT22;7666;50.920;4.628;2023-08-08T08:31:53;19.10;99.90
15131;DHT22;7666;50.920;4.628;2023-08-08T08:34:39;19.00;99.90
15131;DHT22;7666;50.920;4.628;2023-08-08T08:37:25;19.00;99.90
15131;DHT22;7666;50.920;4.628;2023-08-08T08:40:11;18.90;99.90
15131;DHT22;7666;50.920;4.628;2023-08-08T08:42:57;18.80;99.90
15131;DHT22;7666;50.920;4.628;2023-08-08T08:45:50;18.80;99.90
15131;DHT22;7666;50.920;4.628;2023-08-08T08:48:37;18.90;99.90
15131;DHT22;7666;50.920;4.628;2023-08-08T08:51:23;19.00;99.90
15131;DHT22;7666;50.920;4.628;2023-08-08T08:54:10;19.00;99.90
15131;DHT22;7666;50.920;4.628;2023-08-08T08:56:56;19.10;99.90
15131;DHT22;7666;50.920;4.628;2023-08-08T08:59:43;19.10;99.90
15131;DHT22;7666;50.920;4.628;2023-08-08T09:02:30;19.00;99.90
15131;DHT22;7666;50.920;4.628;2023-08-08T09:05:18;19.10;99.90
15131;DHT22;7666;50.920;4.628;2023-08-08T09:08:07;19.10;99.90
15131;DHT22;7666;50.920;4.628;2023-08-08T09:10:54;19.00;99.90
15131;DHT22;7666;50.920;4.628;2023-08-08T09:13:42;19.10;99.90
15131;DHT22;7666;50.920;4.628;2023-08-08T09:16:28;19.30;99.90
15131;DHT22;7666;50.920;4.628;2023-08-08T09:19:16;19.50;99.90
15131;DHT22;7666;50.920;4.628;2023-08-08T09:22:03;19.70;99.90
15131;DHT22;7666;50.920;4.628;2023-08-08T09:24:50;19.90;99.90
15131;DHT22;7666;50.920;4.628;2023-08-08T09:27:36;19.90;99.90
15131;DHT22;7666;50.920;4.628;2023-08-08T09:30:22;19.60;99.90
15131;DHT22;7666;50.920;4.628;2023-08-08T09:33:08;19.70;99.90
15131;DHT22;7666;50.920;4.628;2023-08-08T09:35:54;19.60;99.90
15131;DHT22;7666;50.920;4.628;2023-08-08T09:38:43;19.90;99.90
15131;DHT22;7666;50.920;4.628;2023-08-08T09:41:29;20.10;99.90
15131;DHT22;7666;50.920;4.628;2023-08-08T09:44:15;20.50;99.90
15131;DHT22;7666;50.920;4.628;2023-08-08T09:47:01;20.60;99.90
15131;DHT22;7666;50.920;4.628;2023-08-08T09:49:48;20.70;99.90
15131;DHT22;7666;50.920;4.628;2023-08-08T09:52:35;20.60;99.90
15131;DHT22;7666;50.920;4.628;2023-08-08T09:55:25;20.20;99.90
15131;DHT22;7666;50.920;4.628;2023-08-08T09:58:12;20.00;99.90
15131;DHT22;7666;50.920;4.628;2023-08-08T10:00:58;19.90;99.90
15131;DHT22;7666;50.920;4.628;2023-08-08T10:03:45;19.60;99.90
15131;DHT22;7666;50.920;4.628;2023-08-08T10:06:31;19.60;99.90
15131;DHT22;7666;50.920;4.628;2023-08-08T10:09:17;19.60;99.90
15131;DHT22;7666;50.920;4.628;2023-08-08T10:12:06;19.50;99.90
15131;DHT22;7666;50.920;4.628;2023-08-08T10:14:52;19.60;99.90
15131;DHT22;7666;50.920;4.628;2023-08-08T10:17:40;19.90;99.90
15131;DHT22;7666;50.920;4.628;2023-08-08T10:20:26;20.10;99.90
15131;DHT22;7666;50.920;4.628;2023-08-08T10:23:17;20.10;99.90
15131;DHT22;7666;50.920;4.628;2023-08-08T10:26:04;19.90;99.90
15131;DHT22;7666;50.920;4.628;2023-08-08T10:28:56;19.70;99.90
15131;DHT22;7666;50.920;4.628;2023-08-08T10:31:57;19.50;99.90
15131;DHT22;7666;50.920;4.628;2023-08-08T10:34:44;19.40;99.90
15131;DHT22;7666;50.920;4.628;2023-08-08T10:37:32;19.50;99.90
15131;DHT22;7666;50.920;4.628;2023-08-08T10:40:18;19.70;99.90
15131;DHT22;7666;50.920;4.628;2023-08-08T10:43:11;19.80;99.90
15131;DHT22;7666;50.920;4.628;2023-08-08T10:46:00;19.90;99.90
15131;DHT22;7666;50.920;4.628;2023-08-08T10:48:55;19.80;99.90
15131;DHT22;7666;50.920;4.628;2023-08-08T10:51:43;19.60;99.90
15131;DHT22;7666;50.920;4.628;2023-08-08T10:54:31;19.40;99.90
15131;DHT22;7666;50.920;4.628;2023-08-08T10:57:19;19.20;99.90
15131;DHT22;7666;50.920;4.628;2023-08-08T11:00:19;19.20;99.90
15131;DHT22;7666;50.920;4.628;2023-08-08T11:03:05;19.30;99.90
15131;DHT22;7666;50.920;4.628;2023-08-08T11:05:51;19.30;99.90
15131;DHT22;7666;50.920;4.628;2023-08-08T11:08:38;19.30;99.90
15131;DHT22;7666;50.920;4.628;2023-08-08T11:11:24;19.30;99.90
15131;DHT22;7666;50.920;4.628;2023-08-08T11:14:14;19.50;99.90
15131;DHT22;7666;50.920;4.628;2023-08-08T11:17:01;19.60;99.90
15131;DHT22;7666;50.920;4.628;2023-08-08T11:19:47;19.60;99.90
15131;DHT22;7666;50.920;4.628;2023-08-08T11:22:33;19.60;99.90
15131;DHT22;7666;50.920;4.628;2023-08-08T11:25:19;19.60;99.90
15131;DHT22;7666;50.920;4.628;2023-08-08T11:28:06;19.70;99.90
15131;DHT22;7666;50.920;4.628;2023-08-08T11:30:52;19.70;99.90
15131;DHT22;7666;50.920;4.628;2023-08-08T11:33:38;20.10;99.90
15131;DHT22;7666;50.920;4.628;2023-08-08T11:36:25;20.40;99.90
15131;DHT22;7666;50.920;4.628;2023-08-08T11:39:11;20.50;99.90
15131;DHT22;7666;50.920;4.628;2023-08-08T11:41:57;20.60;99.90
15131;DHT22;7666;50.920;4.628;2023-08-08T11:44:44;20.60;99.90
15131;DHT22;7666;50.920;4.628;2023-08-08T11:47:30;20.70;99.90
15131;DHT22;7666;50.920;4.628;2023-08-08T11:50:23;20.90;99.90
15131;DHT22;7666;50.920;4.628;2023-08-08T11:53:09;20.80;99.90
15131;DHT22;7666;50.920;4.628;2023-08-08T11:55:55;20.60;99.90
15131;DHT22;7666;50.920;4.628;2023-08-08T11:58:43;20.30;99.90
15131;DHT22;7666;50.920;4.628;2023-08-08T12:01:31;20.40;99.90
15131;DHT22;7666;50.920;4.628;2023-08-08T12:04:20;20.50;99.90
15131;DHT22;7666;50.920;4.628;2023-08-08T12:07:06;20.80;99.90
15131;DHT22;7666;50.920;4.628;2023-08-08T12:09:52;20.90;99.90
15131;DHT22;7666;50.920;4.628;2023-08-08T12:12:38;20.80;99.90
15131;DHT22;7666;50.920;4.628;2023-08-08T12:15:43;20.90;99.90
15131;DHT22;7666;50.920;4.628;2023-08-08T12:18:29;21.00;99.90
15131;DHT22;7666;50.920;4.628;2023-08-08T12:21:16;21.20;99.90
15131;DHT22;7666;50.920;4.628;2023-08-08T12:24:02;21.50;99.90
15131;DHT22;7666;50.920;4.628;2023-08-08T12:26:48;21.60;99.90
15131;DHT22;7666;50.920;4.628;2023-08-08T12:29:34;21.90;99.90
15131;DHT22;7666;50.920;4.628;2023-08-08T12:32:21;22.40;99.90
15131;DHT22;7666;50.920;4.628;2023-08-08T12:35:09;22.70;99.90
15131;DHT22;7666;50.920;4.628;2023-08-08T12:37:55;23.00;99.90
15131;DHT22;7666;50.920;4.628;2023-08-08T12:40:49;23.20;99.90
15131;DHT22;7666;50.920;4.628;2023-08-08T12:43:35;23.00;99.90
15131;DHT22;7666;50.920;4.628;2023-08-08T12:46:21;22.60;99.90
15131;DHT22;7666;50.920;4.628;2023-08-08T12:49:07;22.60;99.90
15131;DHT22;7666;50.920;4.628;2023-08-08T12:51:53;22.20;99.90
15131;DHT22;7666;50.920;4.628;2023-08-08T12:54:41;22.10;99.90
15131;DHT22;7666;50.920;4.628;2023-08-08T12:57:27;22.00;99.90
15131;DHT22;7666;50.920;4.628;2023-08-08T13:00:14;21.90;99.90
15131;DHT22;7666;50.920;4.628;2023-08-08T13:03:00;21.70;99.90
15131;DHT22;7666;50.920;4.628;2023-08-08T13:05:46;21.90;99.90
15131;DHT22;7666;50.920;4.628;2023-08-08T13:08:32;21.90;99.90
15131;DHT22;7666;50.920;4.628;2023-08-08T13:11:18;21.80;99.90
15131;DHT22;7666;50.920;4.628;2023-08-08T13:14:04;21.80;99.90
15131;DHT22;7666;50.920;4.628;2023-08-08T13:16:50;21.90;99.90
15131;DHT22;7666;50.920;4.628;2023-08-08T13:19:37;21.70;99.90
15131;DHT22;7666;50.920;4.628;2023-08-08T13:22:23;22.00;99.90
15131;DHT22;7666;50.920;4.628;2023-08-08T13:25:09;22.00;99.90
15131;DHT22;7666;50.920;4.628;2023-08-08T13:27:55;21.80;99.90
15131;DHT22;7666;50.920;4.628;2023-08-08T13:30:41;21.80;99.90
15131;DHT22;7666;50.920;4.628;2023-08-08T13:33:28;21.60;99.90
15131;DHT22;7666;50.920;4.628;2023-08-08T13:36:14;21.50;99.90
15131;DHT22;7666;50.920;4.628;2023-08-08T13:39:00;21.40;99.90
15131;DHT22;7666;50.920;4.628;2023-08-08T13:41:46;21.20;99.90
15131;DHT22;7666;50.920;4.628;2023-08-08T13:44:32;21.30;99.90
15131;DHT22;7666;50.920;4.628;2023-08-08T13:47:18;21.50;99.90
15131;DHT22;7666;50.920;4.628;2023-08-08T13:50:06;21.50;99.90
15131;DHT22;7666;50.920;4.628;2023-08-08T13:52:54;21.60;99.90
15131;DHT22;7666;50.920;4.628;2023-08-08T13:55:40;21.70;99.90
15131;DHT22;7666;50.920;4.628;2023-08-08T13:58:27;21.90;99.90
15131;DHT22;7666;50.920;4.628;2023-08-08T14:01:13;21.90;99.90
15131;DHT22;7666;50.920;4.628;2023-08-08T14:03:59;21.70;99.90
15131;DHT22;7666;50.920;4.628;2023-08-08T14:06:45;21.60;99.90
15131;DHT22;7666;50.920;4.628;2023-08-08T14:09:31;21.60;99.90
15131;DHT22;7666;50.920;4.628;2023-08-08T14:12:17;21.50;99.90
15131;DHT22;7666;50.920;4.628;2023-08-08T14:15:04;21.50;99.90
15131;DHT22;7666;50.920;4.628;2023-08-08T14:17:50;21.50;99.90
15131;DHT22;7666;50.920;4.628;2023-08-08T14:20:36;21.50;99.90
15131;DHT22;7666;50.920;4.628;2023-08-08T14:23:22;21.50;99.90
15131;DHT22;7666;50.920;4.628;2023-08-08T14:26:08;21.40;99.90
15131;DHT22;7666;50.920;4.628;2023-08-08T14:28:54;21.30;99.90
15131;DHT22;7666;50.920;4.628;2023-08-08T14:31:40;21.40;99.90
15131;DHT22;7666;50.920;4.628;2023-08-08T14:34:30;21.40;99.90
15131;DHT22;7666;50.920;4.628;2023-08-08T14:37:17;21.40;99.90
15131;DHT22;7666;50.920;4.628;2023-08-08T14:40:03;21.10;99.90
15131;DHT22;7666;50.920;4.628;2023-08-08T14:42:49;21.00;99.90
15131;DHT22;7666;50.920;4.628;2023-08-08T14:45:36;20.80;99.90
15131;DHT22;7666;50.920;4.628;2023-08-08T14:48:23;20.70;99.90
15131;DHT22;7666;50.920;4.628;2023-08-08T14:51:09;20.60;99.90
15131;DHT22;7666;50.920;4.628;2023-08-08T14:53:56;20.40;99.90
15131;DHT22;7666;50.920;4.628;2023-08-08T14:56:42;20.30;99.90
15131;DHT22;7666;50.920;4.628;2023-08-08T14:59:28;20.20;99.90
15131;DHT22;7666;50.920;4.628;2023-08-08T15:02:14;20.00;99.90
15131;DHT22;7666;50.920;4.628;2023-08-08T15:05:00;20.00;99.90
15131;DHT22;7666;50.920;4.628;2023-08-08T15:07:46;20.00;99.90
15131;DHT22;7666;50.920;4.628;2023-08-08T15:10:33;20.10;99.90
15131;DHT22;7666;50.920;4.628;2023-08-08T15:13:19;20.10;99.90
15131;DHT22;7666;50.920;4.628;2023-08-08T15:16:05;20.00;99.90
15131;DHT22;7666;50.920;4.628;2023-08-08T15:18:50;20.00;99.90
15131;DHT22;7666;50.920;4.628;2023-08-08T15:21:36;19.90;99.90
15131;DHT22;7666;50.920;4.628;2023-08-08T15:24:22;20.00;99.90
15131;DHT22;7666;50.920;4.628;2023-08-08T15:27:08;20.00;99.90
15131;DHT22;7666;50.920;4.628;2023-08-08T15:29:54;20.00;99.90
15131;DHT22;7666;50.920;4.628;2023-08-08T15:32:40;20.00;99.90
15131;DHT22;7666;50.920;4.628;2023-08-08T15:35:26;19.80;99.90
15131;DHT22;7666;50.920;4.628;2023-08-08T15:38:12;19.80;99.90
15131;DHT22;7666;50.920;4.628;2023-08-08T15:40:58;19.60;99.90
15131;DHT22;7666;50.920;4.628;2023-08-08T15:43:45;19.60;99.90
15131;DHT22;7666;50.920;4.628;2023-08-08T15:46:31;19.50;99.90
15131;DHT22;7666;50.920;4.628;2023-08-08T15:49:17;19.50;99.90
15131;DHT22;7666;50.920;4.628;2023-08-08T15:52:04;19.40;99.90
15131;DHT22;7666;50.920;4.628;2023-08-08T15:54:50;19.40;99.90
15131;DHT22;7666;50.920;4.628;2023-08-08T15:57:36;19.40;99.90
15131;DHT22;7666;50.920;4.628;2023-08-08T16:00:23;19.30;99.90
15131;DHT22;7666;50.920;4.628;2023-08-08T16:03:09;19.30;99.90
15131;DHT22;7666;50.920;4.628;2023-08-08T16:05:54;19.20;99.90
15131;DHT22;7666;50.920;4.628;2023-08-08T16:08:41;19.10;99.90
15131;DHT22;7666;50.920;4.628;2023-08-08T16:11:26;19.10;99.90
15131;DHT22;7666;50.920;4.628;2023-08-08T16:14:12;19.10;99.90
15131;DHT22;7666;50.920;4.628;2023-08-08T16:16:58;19.10;99.90
15131;DHT22;7666;50.920;4.628;2023-08-08T16:19:44;19.10;99.90
15131;DHT22;7666;50.920;4.628;2023-08-08T16:22:30;19.20;99.90
15131;DHT22;7666;50.920;4.628;2023-08-08T16:25:16;19.10;99.90
15131;DHT22;7666;50.920;4.628;2023-08-08T16:28:03;19.00;99.90
15131;DHT22;7666;50.920;4.628;2023-08-08T16:30:49;19.00;99.90
15131;DHT22;7666;50.920;4.628;2023-08-08T16:33:35;19.00;99.90
15131;DHT22;7666;50.920;4.628;2023-08-08T16:36:21;18.90;99.90
15131;DHT22;7666;50.920;4.628;2023-08-08T16:39:07;18.90;99.90
15131;DHT22;7666;50.920;4.628;2023-08-08T16:41:54;18.80;99.90
15131;DHT22;7666;50.920;4.628;2023-08-08T16:44:43;18.60;99.90
15131;DHT22;7666;50.920;4.628;2023-08-08T16:47:29;18.50;99.90
15131;DHT22;7666;50.920;4.628;2023-08-08T16:50:15;18.50;99.90
15131;DHT22;7666;50.920;4.628;2023-08-08T16:53:01;18.40;99.90
15131;DHT22;7666;50.920;4.628;2023-08-08T16:55:48;18.40;99.90
15131;DHT22;7666;50.920;4.628;2023-08-08T16:58:34;18.30;99.90
15131;DHT22;7666;50.920;4.628;2023-08-08T17:01:20;18.10;99.90
15131;DHT22;7666;50.920;4.628;2023-08-08T17:04:06;18.00;99.90
15131;DHT22;7666;50.920;4.628;2023-08-08T17:06:52;18.00;99.90
15131;DHT22;7666;50.920;4.628;2023-08-08T17:09:39;18.00;99.90
15131;DHT22;7666;50.920;4.628;2023-08-08T17:12:25;18.00;99.90
15131;DHT22;7666;50.920;4.628;2023-08-08T17:15:11;18.00;99.90
15131;DHT22;7666;50.920;4.628;2023-08-08T17:17:57;18.10;99.90
15131;DHT22;7666;50.920;4.628;2023-08-08T17:20:43;18.10;99.90
15131;DHT22;7666;50.920;4.628;2023-08-08T17:23:29;18.20;99.90
15131;DHT22;7666;50.920;4.628;2023-08-08T17:26:15;18.20;99.90
15131;DHT22;7666;50.920;4.628;2023-08-08T17:29:01;18.20;99.90
15131;DHT22;7666;50.920;4.628;2023-08-08T17:31:47;18.10;99.90
15131;DHT22;7666;50.920;4.628;2023-08-08T17:34:33;18.00;99.90
15131;DHT22;7666;50.920;4.628;2023-08-08T17:37:19;18.00;99.90
15131;DHT22;7666;50.920;4.628;2023-08-08T17:40:06;17.90;99.90
15131;DHT22;7666;50.920;4.628;2023-08-08T17:42:52;17.80;99.90
15131;DHT22;7666;50.920;4.628;2023-08-08T17:45:38;17.70;99.90
15131;DHT22;7666;50.920;4.628;2023-08-08T17:48:24;17.70;99.90